»·PEaware :: N971X KSBA-KHAF

N971X :: KSBA-KHAF

FLIGHT INFORMATION

Flight Status: Arrived
Operator: Privately registered:
United States
More flights under this callsign
Pilot: Matthew F. (17981)
Aircraft: PILATUS PC-12 EAGLE
(PC12)
More flights by this aircraft type
Origin: KSBA Santa Barbara Mun
United States
Destination: KHAF Half Moon Bay
United States
More flights between these airports :: More routes between these airports
Route: GAUCH1 MQO V27 TAILS
File this flight plan on PilotEdge
Remarks:
Altitude:
(Current/Filed)
20,000ft
Speed:
(Current/Filed)
190kts
Departed: 10-Jan-19 08:12 PM
Arrived: 10-Jan-19 09:24 PM
Distance/Time
Traveled:
226nm/1:12
Distance/Time
To Go:
Arrived

Flight Plot

Page will automatically refresh every two minutes.

Flight plan parsing failed; only flown route is shown


Map Options




Map Legend


Flown Route
Filed Route
Departure Airport
Arrival Airport
Navaid (VOR, NDB)
Fix

Horizontal Profiles

Position Reports

Time Latitude Longitude Heading Altitude Ground
Speed
10-Jan-19 19:56 34.432565 -119.835101 71 14ft 0kts
10-Jan-19 19:57 34.432565 -119.835101 71 14ft 0kts
10-Jan-19 19:58 34.432565 -119.835101 71 14ft 0kts
10-Jan-19 19:59 34.432565 -119.835101 71 14ft 0kts
10-Jan-19 20:00 34.432565 -119.835101 71 14ft 0kts
10-Jan-19 20:01 34.432565 -119.835101 71 14ft 0kts
10-Jan-19 20:02 34.432565 -119.835101 71 14ft 0kts
10-Jan-19 20:03 34.432565 -119.835101 71 14ft 0kts
10-Jan-19 20:04 34.432565 -119.835101 71 14ft 0kts
10-Jan-19 20:05 34.432565 -119.835101 71 14ft 0kts
10-Jan-19 20:06 34.430246 -119.835329 178 14ft 15kts
10-Jan-19 20:07 34.428729 -119.834779 142 14ft 0kts
10-Jan-19 20:08 34.428675 -119.834694 138 14ft 0kts
10-Jan-19 20:09 34.428675 -119.834694 138 14ft 0kts
10-Jan-19 20:10 34.427924 -119.835161 256 14ft 20kts
10-Jan-19 20:11 34.426040 -119.868312 267 1072ft 144kts
10-Jan-19 20:12 34.425216 -119.913841 268 2995ft 176kts
10-Jan-19 20:13 34.424418 -119.976332 267 4100ft 189kts
10-Jan-19 20:14 34.430826 -120.024879 325 6425ft 160kts
10-Jan-19 20:15 34.463763 -120.054662 323 7996ft 182kts
10-Jan-19 20:16 34.506419 -120.092279 323 8018ft 231kts
10-Jan-19 20:17 34.554837 -120.135038 323 8017ft 242kts
10-Jan-19 20:18 34.605238 -120.179757 323 8017ft 244kts
10-Jan-19 20:19 34.655573 -120.224517 323 8017ft 245kts
10-Jan-19 20:20 34.705491 -120.268981 323 8018ft 245kts
10-Jan-19 20:21 34.755762 -120.313830 322 8021ft 245kts
10-Jan-19 20:22 34.804229 -120.357106 322 9113ft 206kts
10-Jan-19 20:23 34.839415 -120.388705 319 11785ft 147kts
10-Jan-19 20:24 34.871151 -120.417514 319 13557ft 165kts
10-Jan-19 20:25 34.904986 -120.447795 319 15468ft 167kts
10-Jan-19 20:26 34.939706 -120.478940 319 17285ft 170kts
10-Jan-19 20:27 34.974981 -120.510620 319 19003ft 173kts
10-Jan-19 20:28 35.011857 -120.543885 319 20169ft 200kts
10-Jan-19 20:29 35.058353 -120.585629 320 20169ft 243kts
10-Jan-19 20:30 35.109848 -120.631856 320 20164ft 255kts
10-Jan-19 20:31 35.160900 -120.677893 320 20166ft 259kts
10-Jan-19 20:32 35.207459 -120.719998 320 20165ft 260kts
10-Jan-19 20:33 35.258334 -120.770707 309 20167ft 258kts
10-Jan-19 20:34 35.299032 -120.833820 305 20165ft 257kts
10-Jan-19 20:35 35.338604 -120.896686 305 20164ft 257kts
10-Jan-19 20:36 35.378504 -120.959398 305 20163ft 257kts
10-Jan-19 20:38 35.418789 -121.022676 304 20161ft 257kts
10-Jan-19 20:39 35.459199 -121.086285 304 20158ft 258kts
10-Jan-19 20:40 35.499825 -121.150361 303 20155ft 260kts
10-Jan-19 20:41 35.540717 -121.214982 302 20154ft 263kts
10-Jan-19 20:42 35.582248 -121.280696 303 20154ft 264kts
10-Jan-19 20:43 35.623906 -121.345978 308 20150ft 267kts
10-Jan-19 20:44 35.686259 -121.384166 331 20154ft 276kts
10-Jan-19 20:45 35.750847 -121.419241 331 20154ft 276kts
10-Jan-19 20:46 35.816182 -121.453391 332 20154ft 277kts
10-Jan-19 20:47 35.881803 -121.487448 332 20152ft 277kts
10-Jan-19 20:48 35.947220 -121.521439 332 20151ft 277kts
10-Jan-19 20:49 36.012489 -121.555420 332 20150ft 277kts
10-Jan-19 20:50 36.077647 -121.589405 332 20149ft 277kts
10-Jan-19 20:51 36.141759 -121.622899 332 20144ft 276kts
10-Jan-19 20:52 36.197968 -121.657903 321 20148ft 272kts
10-Jan-19 20:53 36.249868 -121.702643 319 20146ft 271kts
10-Jan-19 20:54 36.304978 -121.750793 319 20146ft 271kts
10-Jan-19 20:55 36.361495 -121.799919 319 20146ft 271kts
10-Jan-19 20:56 36.417586 -121.848199 320 19970ft 248kts
10-Jan-19 20:57 36.462928 -121.886909 317 20140ft 190kts
10-Jan-19 20:57 36.494020 -121.914623 316 20143ft 170kts
10-Jan-19 20:59 36.533060 -121.949401 316 20144ft 153kts
10-Jan-19 21:00 36.564193 -121.976642 315 20144ft 144kts
10-Jan-19 21:00 36.588870 -121.998228 315 20145ft 138kts
10-Jan-19 21:02 36.636351 -122.042329 319 20151ft 237kts
10-Jan-19 21:02 36.678314 -122.078233 319 20146ft 238kts
10-Jan-19 21:03 36.727667 -122.121011 319 20140ft 218kts
10-Jan-19 21:04 36.768975 -122.156421 317 19492ft 181kts
10-Jan-19 21:05 36.806541 -122.188658 328 18756ft 184kts
10-Jan-19 21:06 36.853160 -122.196771 341 17940ft 191kts
10-Jan-19 21:07 36.905098 -122.209206 346 16677ft 218kts
10-Jan-19 21:08 36.961238 -122.219968 347 15405ft 227kts
10-Jan-19 21:09 37.019504 -122.230848 347 14160ft 233kts
10-Jan-19 21:10 37.079253 -122.241850 348 12879ft 238kts
10-Jan-19 21:11 37.136223 -122.252164 350 11271ft 232kts
10-Jan-19 21:12 37.191254 -122.262381 352 9416ft 225kts
10-Jan-19 21:13 37.248500 -122.273114 353 6866ft 237kts
10-Jan-19 21:14 37.301910 -122.283256 353 5578ft 194kts
10-Jan-19 21:15 37.343760 -122.302668 318 4985ft 168kts
10-Jan-19 21:16 37.374930 -122.339138 319 4562ft 151kts
10-Jan-19 21:17 37.402072 -122.370716 318 3512ft 148kts
10-Jan-19 21:18 37.425848 -122.398541 318 3419ft 114kts
10-Jan-19 21:19 37.448565 -122.425179 318 3081ft 135kts
10-Jan-19 21:20 37.474497 -122.455457 318 2647ft 130kts
10-Jan-19 21:21 37.497999 -122.483064 317 1421ft 131kts
10-Jan-19 21:22 37.516635 -122.504755 319 49ft 49kts
10-Jan-19 21:23 37.519334 -122.505455 115 49ft 8kts
10-Jan-19 21:24 37.516637 -122.501802 125 49ft 20kts
10-Jan-19 21:25 37.514792 -122.497101 123 49ft 19kts

Navigation Log

Ident Type
Flight plan parsing failed, navigation log unavailable